Skip Navigation Links Skip Navigation Links

Current Weather

Lynchburg Regional/Preston Glenn Fld, Lynchburg, Va.

For information only: do not use for flight planning or navigation.
Latest weather
Observation time Friday, May 25, 2018 8:15 AM EDT
Local time Friday, May 25, 2018 8:33 AM EDT
Flight conditions Marginal Visual Meteorological Conditions
Winds
Wind direction South-Southwest (200°)
Wind speed 6 mph
Visibility 10 mi.
Sky condition
Ceiling 1,300 ft. broken clouds
Cloud layer broken clouds 1,300 ft.
Temperature 66°F
Dewpoint 61°F
Altimeter 30.14 in.Hg
Derived measurements
Relative humidity 83%
Density altitude 1408 ft.
Remarks
Special weather observation.
METAR SPUS81 KWBC 251218 SPECI KLYH 251215Z 20005KT 10SM BKN013 19/16 A3014

Settings

Location code

InnerDrive.Weather 4.0.6615.0 Release CLR 4.0.30319.42000
Copyright ©2018 Inner Drive Technology. All rights reserved. Portions Copyright ©1986-2018 David Braverman.

Find weather

Site navigation


Skip Navigation Links

Place info

Page info

PayPal - The safer, easier way to pay online!

Return home.

Copyright ©2018 Inner Drive Technology. Purveyors of fine, hand-crafted computer software. Page printed 2018-05-25T12:33:54 UTC.